Flight Track Log - Related Links

Times and Time Zones

All times are in EDT time to prevent confusion due to time zone crossing. See the UAL395 flight status page for this flight to view local times or setup timezone preferences in your user account.

Time Position Orientation Groundspeed Altitude Reporting Facility
EDT Latitude Longitude Course Direction KTS MPH feet Rate Location/Type
Tue 08:26:01 AM 29.9617 -95.3436 291° West 149 171 700  Level Houston Center
Tue 08:27:08 AM 29.9436 -95.3989 249° West 223 257 2,600 2,250 Climbing Houston Center
Tue 08:28:09 AM 29.9575 -95.4814 281° West 278 320 5,500 3,462 Climbing Houston Center
Tue 08:29:00 AM 30.0342 -95.8101 276° West  Level FlightAware Approximate
Tue 08:29:18 AM 29.9772 -95.5764 283° West 266 306 10,100  Level Houston Center
Tue 08:30:00 AM 30.0442 -95.9302 276° West  Level FlightAware Approximate
Tue 08:30:20 AM 29.9956 -95.6667 283° West 283 326 11,500  Level Houston Center
Tue 08:31:00 AM 30.0657 -96.0471 291° West  Level FlightAware Approximate
Tue 08:31:21 AM 30.0167 -95.7747 283° West 338 389 14,200  Level Houston Center
Tue 08:32:23 AM 30.0364 -95.8844 282° West 348 400 16,900 2,419 Climbing Houston Center
Tue 08:33:25 AM 30.0581 -95.9961 283° West 356 410 19,200 1,951 Climbing Houston Center
Tue 08:34:26 AM 30.0783 -96.1061 282° West 365 420 20,900 1,854 Climbing Houston Center
Tue 08:35:28 AM 30.1000 -96.2503 280° West 380 437 23,000 1,756 Climbing Houston Center
Tue 08:36:29 AM 30.1200 -96.3739 281° West 391 450 24,500 1,512 Climbing Houston Center
Tue 08:37:31 AM 30.1492 -96.4922 286° West 398 458 26,100 1,463 Climbing Houston Center
Tue 08:38:32 AM 30.1778 -96.6228 284° West 409 471 27,500 1,268 Climbing Houston Center
Tue 08:39:34 AM 30.2081 -96.7519 285° West 412 474 28,700 1,122 Climbing Houston Center
Tue 08:40:35 AM 30.2372 -96.8869 284° West 424 488 29,800 1,317 Climbing Houston Center
Tue 08:41:37 AM 30.2664 -97.0219 284° West 427 491 31,400 1,597 Climbing Houston Center
Tue 08:42:39 AM 30.3006 -97.1736 285° West 414 476 33,100 1,805 Climbing Houston Center
Tue 08:43:40 AM 30.3281 -97.3028 284° West 408 470 35,100 1,415 Climbing Houston Center
Tue 08:44:42 AM 30.3556 -97.4242 285° West 388 447 36,000 439 Climbing Houston Center
Tue 08:45:43 AM 30.3819 -97.5500 284° West 395 455 36,000 537 Level Houston Center
Tue 08:46:45 AM 30.4103 -97.6756 285° West 396 456 37,100 927 Climbing Houston Center
Tue 08:47:46 AM 30.4372 -97.7992 284° West 392 451 37,900 439 Climbing Houston Center
Tue 08:48:48 AM 30.4619 -97.9214 283° West 387 445 38,000 48 Climbing Houston Center
Tue 08:49:50 AM 30.4881 -98.0447 284° West 389 448 38,000  Level Houston Center
Tue 08:50:51 AM 30.5150 -98.1675 284° West 389 448 38,000  Level Houston Center
Tue 08:51:53 AM 30.5408 -98.2933 283° West 394 453 38,000  Level Houston Center
Tue 08:52:55 AM 30.5669 -98.4172 284° West 392 451 38,000  Level Houston Center
Tue 08:53:56 AM 30.5939 -98.5431 284° West 396 456 38,000  Level Houston Center
Tue 08:54:58 AM 30.6203 -98.6681 284° West 396 456 38,000  Level Houston Center
Tue 08:56:00 AM 30.6506 -98.8150 284° West 396 456 38,000  Level Houston Center
Tue 08:57:01 AM 30.6769 -98.9408 284° West 396 456 38,000  Level Houston Center
Tue 08:58:03 AM 30.7019 -99.0669 283° West 396 456 38,000 -48 Level Houston Center
Tue 08:59:05 AM 30.7253 -99.1831 283° West 396 456 37,900 -49 Descending Houston Center
Tue 09:00:06 AM 30.7519 -99.3072 284° West 397 457 37,900  Level Houston Center
Tue 09:01:08 AM 30.7761 -99.4314 283° West 397 457 37,900  Level Houston Center
Tue 09:02:10 AM 30.8056 -99.5794 283° West 395 455 37,900  Level Houston Center
Tue 09:03:12 AM 30.8314 -99.7047 284° West 401 461 37,900  Level Houston Center
Tue 09:04:13 AM 30.8553 -99.8292 283° West 397 457 37,900  Level Houston Center
Tue 09:05:15 AM 30.8800 -99.9522 283° West 394 453 37,900  Level Houston Center
Tue 09:06:17 AM 30.9039 -100.0769 283° West 396 456 37,900  Level Houston Center
Tue 09:07:18 AM 30.9283 -100.2011 283° West 396 456 37,900  Level Houston Center
Tue 09:08:20 AM 30.9569 -100.3503 283° West 396 456 37,900  Level Houston Center
Tue 09:09:22 AM 30.9817 -100.4750 283° West 396 456 37,900  Level Houston Center
Tue 09:10:24 AM 31.0053 -100.5994 283° West 398 458 37,900  Level Houston Center
Tue 09:11:25 AM 31.0300 -100.7219 283° West 393 452 37,900  Level Houston Center
Tue 09:12:27 AM 31.0511 -100.8511 281° West 408 470 37,900  Level Houston Center
Tue 09:13:29 AM 31.0744 -100.9742 283° West 400 460 37,900  Level Houston Center
Tue 09:14:31 AM 31.1022 -101.1242 282° West 406 467 37,900  Level Houston Center
Tue 09:15:33 AM 31.1278 -101.2419 284° West 388 447 37,900  Level Houston Center
Tue 09:16:34 AM 31.1522 -101.3708 283° West 395 455 37,900  Level Houston Center
Tue 09:17:36 AM 31.1739 -101.4961 281° West 396 456 37,900  Level Houston Center
Tue 09:18:38 AM 31.1969 -101.6200 282° West 393 452 37,900  Level Houston Center
Tue 09:19:19 AM 31.2133 -101.7189 281° West 392 451 37,900  Level Albuquerque Center
Tue 09:20:20 AM 31.2358 -101.8439 282° West 394 453 37,900 49 Level Albuquerque Center
Tue 09:21:21 AM 31.2558 -101.9592 282° West 405 466 38,000 50 Climbing Albuquerque Center
Tue 09:22:21 AM 31.2783 -102.0847 282° West 401 461 38,000  Level Albuquerque Center
Tue 09:23:22 AM 31.3006 -102.2108 282° West 396 456 38,000  Level Albuquerque Center
Tue 09:24:23 AM 31.3231 -102.3378 282° West 398 458 38,000  Level Albuquerque Center
Tue 09:25:24 AM 31.3444 -102.4633 281° West 395 455 38,000 -49 Level Albuquerque Center
Tue 09:26:25 AM 31.3714 -102.6158 282° West 396 456 37,900 -49 Descending Albuquerque Center
Tue 09:27:26 AM 31.3931 -102.7422 281° West 397 457 37,900  Level Albuquerque Center
Tue 09:28:27 AM 31.4153 -102.8683 282° West 396 456 37,900  Level Albuquerque Center
Tue 09:29:28 AM 31.4361 -102.9939 281° West 395 455 37,900  Level Albuquerque Center
Tue 09:30:29 AM 31.4583 -103.1200 282° West 396 456 37,900  Level Albuquerque Center
Tue 09:31:30 AM 31.4786 -103.2472 281° West 397 457 37,900  Level Albuquerque Center
Tue 09:32:31 AM 31.4997 -103.3722 281° West 394 453 37,900  Level Albuquerque Center
Tue 09:33:32 AM 31.5206 -103.4994 281° West 397 457 37,900  Level Albuquerque Center
Tue 09:34:33 AM 31.5417 -103.6278 281° West 401 461 37,900 49 Level Albuquerque Center
Tue 09:35:34 AM 31.5653 -103.7631 282° West 405 466 38,000 49 Climbing Albuquerque Center
Tue 09:36:35 AM 31.5844 -103.8922 280° West 404 465 38,000 -49 Level Albuquerque Center
Tue 09:37:36 AM 31.6072 -104.0208 282° West 403 464 37,900 -49 Descending Albuquerque Center
Tue 09:38:37 AM 31.6275 -104.1489 281° West 402 463 37,900  Level Albuquerque Center
Tue 09:39:39 AM 31.6489 -104.2778 281° West 404 465 37,900  Level Albuquerque Center
Tue 09:40:40 AM 31.6736 -104.4331 281° West 405 466 37,900  Level Albuquerque Center
Tue 09:41:41 AM 31.6944 -104.5619 281° West 405 466 37,900  Level Albuquerque Center
Tue 09:42:42 AM 31.7147 -104.6908 281° West 403 464 37,900  Level Albuquerque Center
Tue 09:43:43 AM 31.7353 -104.8197 281° West 404 465 37,900  Level Albuquerque Center
Tue 09:44:44 AM 31.7547 -104.9481 280° West 403 464 37,900  Level Albuquerque Center
Tue 09:45:46 AM 31.7753 -105.0783 281° West 406 467 37,900 49 Level Albuquerque Center
Tue 09:46:47 AM 31.7942 -105.2083 280° West 406 467 38,000 49 Climbing Albuquerque Center
Tue 09:47:48 AM 31.8142 -105.3403 280° West 410 472 38,000 -49 Level Albuquerque Center
Tue 09:48:49 AM 31.8333 -105.4678 280° West 400 460 37,900 -49 Descending Albuquerque Center
Tue 09:49:50 AM 31.8564 -105.6200 280° West 394 453 37,900  Level Albuquerque Center
Tue 09:50:52 AM 31.8747 -105.7464 280° West 394 453 37,900  Level Albuquerque Center
Tue 09:51:53 AM 31.8939 -105.8736 280° West 395 455 37,900  Level Albuquerque Center
Tue 09:52:54 AM 31.9117 -105.9886 280° West 394 453 37,900  Level Albuquerque Center
Tue 09:53:56 AM 31.9292 -106.1167 279° West 397 457 37,900  Level Albuquerque Center
Tue 09:54:57 AM 31.9533 -106.2683 281° West 395 455 37,900  Level Albuquerque Center
Tue 09:55:58 AM 31.9836 -106.3958 286° West 403 464 37,900  Level Albuquerque Center
Tue 09:57:00 AM 32.0142 -106.5217 286° West 400 460 37,900 49 Level Albuquerque Center
Tue 09:58:01 AM 32.0453 -106.6467 286° West 399 459 38,000  Climbing Albuquerque Center
Tue 09:59:02 AM 32.0764 -106.7714 286° West 395 455 37,900 -49 Descending Albuquerque Center
Tue 10:00:04 AM 32.1072 -106.8958 286° West 395 455 37,900  Level Albuquerque Center
Tue 10:01:05 AM 32.1369 -107.0217 286° West 396 456 37,900 49 Level Albuquerque Center
Tue 10:02:07 AM 32.1911 -107.1536 296° West 393 452 38,000 49 Climbing Albuquerque Center
Tue 10:03:08 AM 32.2458 -107.2717 299° West 400 460 38,000  Level Albuquerque Center
Tue 10:04:10 AM 32.3022 -107.3828 301° West 398 458 38,000  Level Albuquerque Center
Tue 10:05:11 AM 32.3583 -107.4933 301° West 397 457 38,000 -49 Level Albuquerque Center
Tue 10:06:13 AM 32.4192 -107.6161 300° West 394 453 37,900 -49 Descending Albuquerque Center
Tue 10:07:14 AM 32.4758 -107.7306 300° West 399 459 37,900 49 Level Albuquerque Center
Tue 10:08:16 AM 32.5253 -107.8286 301° West 399 459 38,000 49 Climbing Albuquerque Center
Tue 10:09:17 AM 32.5919 -107.9636 300° West 399 459 38,000  Level Albuquerque Center
Tue 10:11:20 AM 32.7022 -108.1861 301° West 395 455 38,000  Level Albuquerque Center
Tue 10:12:22 AM 32.7583 -108.2978 301° West 396 456 38,000  Level Albuquerque Center
Tue 10:13:23 AM 32.8136 -108.4094 301° West 397 457 38,000  Level Albuquerque Center
Tue 10:14:25 AM 32.8694 -108.5214 301° West 397 457 38,000  Level Albuquerque Center
Tue 10:15:27 AM 32.9358 -108.6564 300° West 398 458 38,000 -49 Level Albuquerque Center
Tue 10:16:28 AM 32.9919 -108.7719 300° West 401 461 37,900 -49 Descending Albuquerque Center
Tue 10:17:30 AM 33.0472 -108.8889 299° West 404 465 37,900  Level Albuquerque Center
Tue 10:18:31 AM 33.1039 -109.0061 300° West 407 468 37,900 49 Level Albuquerque Center
Tue 10:19:33 AM 33.1672 -109.1347 300° West 412 474 38,000 48 Climbing Albuquerque Center
Tue 10:20:35 AM 33.2225 -109.2508 300° West 410 472 38,000  Level Albuquerque Center
Tue 10:21:36 AM 33.2792 -109.3683 300° West 410 472 38,000  Level Albuquerque Center
Tue 10:22:38 AM 33.3356 -109.4867 300° West 413 475 38,000  Level Albuquerque Center
Tue 10:23:40 AM 33.3914 -109.6033 300° West 409 471 38,000  Level Albuquerque Center
Tue 10:24:41 AM 33.4586 -109.7458 300° West 411 473 38,000  Level Albuquerque Center
Tue 10:25:43 AM 33.5147 -109.8647 300° West 413 475 38,000  Level Albuquerque Center
Tue 10:26:45 AM 33.5706 -109.9822 300° West 409 471 38,000  Level Albuquerque Center
Tue 10:27:47 AM 33.6250 -110.1028 298° West 414 476 38,000  Level Albuquerque Center
Tue 10:28:48 AM 33.6803 -110.2203 300° West 410 472 38,000  Level Albuquerque Center
Tue 10:29:50 AM 33.7367 -110.3400 300° West 412 474 38,000  Level Albuquerque Center
Tue 10:30:52 AM 33.7958 -110.4681 299° West 411 473 38,000  Level Albuquerque Center
Tue 10:31:54 AM 33.8503 -110.5869 299° West 409 471 38,000 -48 Level Albuquerque Center
Tue 10:32:56 AM 33.9158 -110.7297 299° West 408 470 37,900  Descending Albuquerque Center
Tue 10:33:58 AM 33.9711 -110.8497 299° West 410 472 38,000 49 Climbing Albuquerque Center
Tue 10:34:59 AM 34.0261 -110.9694 299° West 410 472 38,000  Level Albuquerque Center
Tue 10:36:01 AM 34.0819 -111.0908 299° West 415 478 38,000  Level Albuquerque Center
Tue 10:37:03 AM 34.1358 -111.2103 299° West 411 473 38,000  Level Albuquerque Center
Tue 10:38:05 AM 34.1900 -111.3303 299° West 409 471 38,000  Level Albuquerque Center
Tue 10:39:07 AM 34.2550 -111.4736 299° West 408 470 38,000  Level Albuquerque Center
Tue 10:40:08 AM 34.3078 -111.5925 298° West 408 470 38,000  Level Albuquerque Center
Tue 10:41:10 AM 34.3611 -111.7108 299° West 407 468 38,000  Level Albuquerque Center
Tue 10:42:12 AM 34.4139 -111.8281 299° West 403 464 38,000  Level Albuquerque Center
Tue 10:43:14 AM 34.4667 -111.9461 298° West 402 463 38,000  Level Albuquerque Center
Tue 10:44:16 AM 34.5289 -112.0878 298° West 400 460 38,000 -48 Level Albuquerque Center
Tue 10:45:18 AM 34.5808 -112.2058 298° West 399 459 37,900 -537 Descending Albuquerque Center
Tue 10:46:19 AM 34.6328 -112.3231 298° West 396 456 36,900 -976 Descending Albuquerque Center
Tue 10:47:21 AM 34.6867 -112.4447 298° West 398 458 35,900 -1,210 Descending Albuquerque Center
Tue 10:48:23 AM 34.7356 -112.5639 297° West 395 455 34,400 -1,548 Descending Albuquerque Center
Tue 10:49:25 AM 34.7825 -112.6839 295° West 393 452 32,700 -1,548 Descending Albuquerque Center
Tue 10:50:27 AM 34.8294 -112.8050 295° West 395 455 31,200 -1,306 Descending Albuquerque Center
Tue 10:51:29 AM 34.8875 -112.9542 295° West 403 464 30,000 -585 Descending Albuquerque Center
Tue 10:52:30 AM 34.9367 -113.0806 295° West 409 471 30,000  Level Albuquerque Center
Tue 10:53:32 AM 34.9858 -113.2094 295° West 414 476 30,000  Level Albuquerque Center
Tue 10:54:34 AM 35.0350 -113.3367 295° West 414 476 30,000  Level Albuquerque Center
Tue 10:55:21 AM 35.0725 -113.4361 295° West 408 470 30,000 -1,596 Level Los Angeles Center
Tue 10:56:23 AM 35.1197 -113.5639 294° West 409 471 27,100 -2,927 Descending Los Angeles Center
Tue 10:57:24 AM 35.1708 -113.6947 296° West 422 486 24,000 -1,610 Descending Los Angeles Center
Tue 10:58:26 AM 35.2153 -113.8167 294° West 398 458 23,800 -968 Descending Los Angeles Center
Tue 10:59:28 AM 35.2819 -113.9519 301° West 397 457 22,000 -871 Descending Los Angeles Center
Tue 11:00:30 AM 35.3753 -114.0414 322° Northwest 424 488 22,000 -1,805 Level Los Angeles Center
Tue 11:01:31 AM 35.4669 -114.1253 323° Northwest 412 474 18,300 -3,317 Descending Los Angeles Center
Tue 11:02:33 AM 35.5578 -114.2117 322° Northwest 410 472 15,200 -2,775 Descending Los Angeles Center
Tue 11:02:51 AM 35.5883 -114.2375 325° Northwest 399 459 14,600 -1,355 Descending Los Angeles Center
Tue 11:03:35 AM 35.6364 -114.2825 323° Northwest 359 413 13,800 -1,175 Descending Los Angeles Center
Tue 11:04:28 AM 35.7039 -114.3467 322° Northwest 318 366 12,700 -1,263 Descending Los Angeles Center
Tue 11:05:29 AM 35.7756 -114.4153 322° Northwest 306 352 11,400 -1,426 Descending Los Angeles Center
Tue 11:06:30 AM 35.8383 -114.4819 319° Northwest 298 343 9,800 -1,438 Descending Los Angeles Center
Tue 11:07:30 AM 35.9003 -114.5458 320° Northwest 293 337 8,500 -803 Descending Los Angeles Center
Tue 11:08:37 AM 35.9647 -114.6119 320° Northwest 286 329 8,100 -259 Descending Los Angeles Center
Tue 11:09:26 AM 36.0131 -114.6650 318° Northwest 279 321 8,000 -87 Descending Los Angeles Center
Tue 11:09:46 AM 36.0289 -114.6775 327° Northwest 283 326 8,000  Level Los Angeles Center
Tue 11:10:21 AM 36.0606 -114.7128 318° Northwest 235 270 8,000  Level Los Angeles Center
Tue 11:10:49 AM 36.0761 -114.7317 316° Northwest 259 298 8,000 -455 Level Los Angeles Center
Tue 11:11:27 AM 36.0747 -114.7961 268° West 239 275 7,500 -787 Descending Los Angeles Center
Tue 11:11:50 AM 36.0733 -114.8128 264° West 244 281 7,200 -1,433 Descending Los Angeles Center
Tue 11:12:34 AM 36.0731 -114.8872 270° West 236 272 5,900 -1,773 Descending Los Angeles Center

Login

Don't have an account? Register now (free) for customized features, flight alerts, and more!